Time;durP1;ratioP1;P1;durP2;ratioP2;P2;SDS_P1;SDS_P2;PMS_P1;PMS_P2;Temp;Humidity;BMP_temperature;BMP_pressure;BME280_temperature;BME280_humidity;BME280_pressure;Samples;Min_cycle;Max_cycle;Signal;HPM_P1;HPM_P2
2023/04/15 00:00:56;;;;;;;8.95;4.47;;;;;;;10.59;57.91;100663.34;4996885;28;20125;-91
2023/04/15 00:03:22;;;;;;;10.93;4.40;;;;;;;10.60;57.85;100679.19;4997817;28;20035;-88
2023/04/15 00:05:47;;;;;;;10.52;5.00;;;;;;;10.50;57.88;100666.81;4997794;28;20099;-90
2023/04/15 00:08:14;;;;;;;10.07;4.40;;;;;;;10.45;58.36;100666.78;5012505;28;20428;-90
2023/04/15 00:10:41;;;;;;;11.05;5.05;;;;;;;10.52;58.14;100667.69;4997717;28;20034;-90
2023/04/15 00:13:07;;;;;;;10.20;4.95;;;;;;;10.45;58.67;100679.09;4997579;28;20037;-90
2023/04/15 00:15:32;;;;;;;13.07;4.93;;;;;;;10.52;59.05;100680.91;4998060;28;20034;-90
2023/04/15 00:17:58;;;;;;;10.48;4.57;;;;;;;10.40;58.69;100659.66;4997461;28;20491;-90
2023/04/15 00:20:26;;;;;;;11.48;5.10;;;;;;;10.43;59.21;100671.13;4997450;28;20050;-90
2023/04/15 00:22:54;;;;;;;14.40;5.30;;;;;;;10.41;58.89;100672.00;4997187;28;20070;-90
2023/04/15 00:25:22;;;;;;;12.63;5.25;;;;;;;10.44;58.96;100680.81;5012485;28;20043;-90
2023/04/15 00:27:51;;;;;;;10.77;5.80;;;;;;;10.38;59.14;100669.34;4997320;28;20097;-90
2023/04/15 00:30:16;;;;;;;10.20;5.15;;;;;;;10.35;59.53;100671.94;4997508;28;20394;-89
2023/04/15 00:32:44;;;;;;;12.07;4.88;;;;;;;10.33;58.88;100671.06;4997237;28;20117;-90
2023/04/15 00:35:11;;;;;;;11.82;4.93;;;;;;;10.24;59.71;100656.00;4997527;28;20066;-90
2023/04/15 00:37:38;;;;;;;10.63;4.72;;;;;;;10.24;59.45;100662.19;5013003;28;20436;-90
2023/04/15 00:40:04;;;;;;;12.73;4.75;;;;;;;10.21;59.37;100661.22;4997252;28;20039;-91
2023/04/15 00:42:30;;;;;;;9.63;4.70;;;;;;;10.14;59.38;100662.91;4997206;28;20037;-91
2023/04/15 00:45:00;;;;;;;12.63;4.78;;;;;;;10.11;60.18;100664.66;4996789;28;20026;-90
2023/04/15 00:47:30;;;;;;;12.30;4.75;;;;;;;10.01;60.29;100668.94;4997857;28;20026;-90
2023/04/15 00:49:56;;;;;;;9.68;4.65;;;;;;;9.88;60.61;100662.66;4995664;28;20038;-90
2023/04/15 00:52:24;;;;;;;10.75;4.63;;;;;;;9.98;60.84;100677.75;4995681;28;20034;-91
2023/04/15 00:54:55;;;;;;;9.75;4.85;;;;;;;9.84;60.44;100659.97;4994327;28;20104;-91
2023/04/15 00:57:23;;;;;;;13.15;4.80;;;;;;;9.80;60.45;100664.31;4996451;28;20116;-91
2023/04/15 00:59:58;;;;;;;9.80;5.03;;;;;;;9.77;60.40;100656.41;4996862;28;20026;-91
2023/04/15 01:02:31;;;;;;;9.15;4.85;;;;;;;9.88;60.74;100680.25;4996454;28;20057;-91
2023/04/15 01:04:59;;;;;;;9.98;4.80;;;;;;;9.74;60.58;100659.00;4997154;28;20524;-90
2023/04/15 01:07:27;;;;;;;11.80;4.78;;;;;;;9.72;60.93;100661.63;4996729;28;20112;-90
2023/04/15 01:09:56;;;;;;;13.13;4.75;;;;;;;9.71;60.36;100658.94;4995426;28;20117;-91
2023/04/15 01:12:27;;;;;;;9.60;4.78;;;;;;;9.71;60.84;100657.19;4996714;28;20030;-90
2023/04/15 01:14:54;;;;;;;12.90;4.95;;;;;;;9.62;60.84;100654.44;4995782;28;20022;-91
2023/04/15 01:17:22;;;;;;;12.38;5.05;;;;;;;9.67;60.95;100663.31;4996222;28;20034;-91
2023/04/15 01:19:48;;;;;;;10.75;5.00;;;;;;;9.65;61.00;100667.69;4996706;28;20093;-91
2023/04/15 01:22:16;;;;;;;9.40;5.40;;;;;;;9.60;61.03;100668.50;4994836;28;20026;-90
2023/04/15 01:24:51;;;;;;;11.02;5.15;;;;;;;9.58;60.68;100664.94;4996368;28;20470;-90
2023/04/15 01:27:16;;;;;;;12.10;5.32;;;;;;;9.55;61.21;100663.19;4996204;28;20080;-90
2023/04/15 01:29:41;;;;;;;13.40;5.35;;;;;;;9.52;61.68;100660.50;4996285;28;20498;-91
2023/04/15 01:32:12;;;;;;;12.10;5.20;;;;;;;9.41;61.49;100657.72;4979623;28;20206;-91
2023/04/15 01:34:38;;;;;;;11.63;5.72;;;;;;;9.46;61.88;100663.03;4996160;28;20061;-91
2023/04/15 01:37:11;;;;;;;10.77;5.43;;;;;;;9.37;62.06;100658.53;4996212;28;20458;-91
2023/04/15 01:39:36;;;;;;;9.60;5.60;;;;;;;9.33;62.13;100654.09;4995230;28;20034;-92
2023/04/15 01:42:02;;;;;;;10.88;5.13;;;;;;;9.36;62.88;100664.69;4994655;28;20117;-90
2023/04/15 01:44:36;;;;;;;10.10;5.30;;;;;;;9.22;62.88;100658.38;5010712;28;20088;-90
2023/04/15 01:47:01;;;;;;;10.35;5.30;;;;;;;9.28;62.48;100671.63;4995399;28;20117;-89
2023/04/15 01:49:27;;;;;;;9.93;5.00;;;;;;;9.21;63.04;100654.84;4995231;28;20035;-89
2023/04/15 01:51:57;;;;;;;11.90;5.63;;;;;;;9.20;63.09;100657.44;4998054;28;20041;-89
2023/04/15 01:54:22;;;;;;;11.80;5.57;;;;;;;9.18;63.16;100652.16;4997823;28;20026;-90
2023/04/15 01:56:50;;;;;;;8.98;5.97;;;;;;;9.24;62.91;100665.41;4999753;28;20113;-90
2023/04/15 01:59:18;;;;;;;8.93;5.25;;;;;;;9.25;63.19;100668.97;4995137;28;20046;-91
2023/04/15 02:01:46;;;;;;;10.15;5.53;;;;;;;9.09;63.38;100657.31;4995588;28;20038;-90
2023/04/15 02:04:18;;;;;;;10.27;5.85;;;;;;;9.17;63.41;100663.56;4995763;28;20053;-90
2023/04/15 02:06:45;;;;;;;9.18;5.45;;;;;;;9.17;63.52;100668.84;4995772;28;20118;-91
2023/04/15 02:09:11;;;;;;;10.43;5.97;;;;;;;9.12;63.62;100665.28;4995580;28;20062;-90
2023/04/15 02:11:44;;;;;;;11.35;5.63;;;;;;;9.02;63.76;100655.44;4995727;28;20077;-90
2023/04/15 02:14:10;;;;;;;12.05;5.75;;;;;;;9.14;63.93;100676.72;4994836;28;20062;-90
2023/04/15 02:16:43;;;;;;;11.23;5.88;;;;;;;9.06;63.82;100667.81;4995452;28;20034;-90
2023/04/15 02:19:16;;;;;;;9.95;5.65;;;;;;;9.06;63.64;100674.84;4995636;28;20128;-90
2023/04/15 02:21:41;;;;;;;10.07;5.88;;;;;;;8.93;63.93;100671.13;4993969;28;20530;-90
2023/04/15 02:24:18;;;;;;;10.15;5.75;;;;;;;8.86;64.84;100682.44;4995003;28;20117;-91
2023/04/15 02:26:43;;;;;;;9.13;5.80;;;;;;;8.66;65.19;100666.34;4979433;28;20481;-90
2023/04/15 02:29:11;;;;;;;11.00;5.80;;;;;;;8.62;65.74;100675.94;4995562;28;20047;-91
2023/04/15 02:31:42;;;;;;;8.90;5.70;;;;;;;8.49;66.15;100677.50;4995640;28;20031;-90
2023/04/15 02:34:08;;;;;;;14.48;6.20;;;;;;;8.43;66.04;100673.84;4994743;28;20061;-90
2023/04/15 02:36:33;;;;;;;10.15;5.82;;;;;;;8.43;66.42;100687.03;4994817;28;20367;-90
2023/04/15 02:38:59;;;;;;;12.20;6.00;;;;;;;8.33;66.58;100675.44;4995073;28;20022;-90
2023/04/15 02:41:27;;;;;;;11.50;6.25;;;;;;;8.37;66.60;100697.47;4977878;28;20521;-91
2023/04/15 02:43:52;;;;;;;8.80;5.03;;;;;;;8.40;67.26;100687.88;4993855;28;20034;-90
2023/04/15 02:46:20;;;;;;;10.23;6.10;;;;;;;8.49;66.76;100695.03;4995154;28;20031;-91
2023/04/15 02:48:46;;;;;;;10.35;6.38;;;;;;;8.56;66.84;100709.19;4995766;28;20088;-90
2023/04/15 02:51:19;;;;;;;10.43;6.30;;;;;;;8.63;66.16;100709.31;4994812;28;20030;-90
2023/04/15 02:53:50;;;;;;;10.38;5.65;;;;;;;8.67;66.29;100721.66;4994765;28;20042;-93
2023/04/15 02:56:18;;;;;;;10.33;6.07;;;;;;;8.54;66.39;100701.25;4995103;28;20049;-91
2023/04/15 02:58:44;;;;;;;15.88;6.32;;;;;;;8.52;66.31;100703.88;4994439;28;20038;-90
2023/04/15 03:01:10;;;;;;;10.20;5.97;;;;;;;8.56;66.11;100710.06;4994645;28;20057;-90
2023/04/15 03:03:35;;;;;;;9.30;6.30;;;;;;;8.58;66.38;100704.84;5009572;28;20447;-91
2023/04/15 03:06:10;;;;;;;10.20;6.20;;;;;;;8.53;66.27;100697.75;4994227;28;20026;-91
2023/04/15 03:08:41;;;;;;;9.68;6.70;;;;;;;8.51;66.05;100701.22;4978519;28;20045;-91
2023/04/15 03:11:11;;;;;;;13.00;6.30;;;;;;;8.50;66.63;100697.69;4993757;28;20116;-90
2023/04/15 03:13:40;;;;;;;8.20;6.20;;;;;;;8.47;66.47;100702.91;4994734;28;20032;-90
2023/04/15 03:16:06;;;;;;;12.40;6.40;;;;;;;8.47;66.92;100712.53;4993771;28;20353;-89
2023/04/15 03:18:38;;;;;;;12.68;6.45;;;;;;;8.36;66.91;100708.81;4992423;28;20042;-90
2023/04/15 03:21:05;;;;;;;9.65;6.45;;;;;;;8.26;67.66;100711.31;4992774;28;20036;-90
2023/04/15 03:23:31;;;;;;;9.93;5.95;;;;;;;8.19;68.81;100700.63;4995219;28;20088;-90
2023/04/15 03:25:57;;;;;;;9.18;6.43;;;;;;;8.14;68.68;100707.56;4995856;28;20105;-89
2023/04/15 03:28:23;;;;;;;8.80;6.28;;;;;;;8.15;68.54;100710.22;4994907;28;20056;-90
2023/04/15 03:30:51;;;;;;;11.20;6.88;;;;;;;8.16;69.05;100724.25;4995231;28;20096;-91
2023/04/15 03:33:16;;;;;;;12.02;6.57;;;;;;;8.07;69.06;100722.34;4994191;28;20462;-91
2023/04/15 03:35:45;;;;;;;10.40;6.32;;;;;;;8.12;69.43;100741.72;4995043;28;20022;-90
2023/04/15 03:38:11;;;;;;;10.15;6.65;;;;;;;8.08;68.79;100734.63;4994560;28;20125;-90
2023/04/15 03:40:37;;;;;;;9.82;6.68;;;;;;;8.07;69.33;100731.97;4994183;28;20519;-90
2023/04/15 03:43:05;;;;;;;10.32;6.50;;;;;;;8.01;69.05;100723.13;4993953;28;20054;-90
2023/04/15 03:45:31;;;;;;;11.60;6.68;;;;;;;8.01;69.61;100728.38;4994027;28;20031;-90
2023/04/15 03:47:56;;;;;;;10.85;6.63;;;;;;;7.98;69.67;100722.16;4994190;28;20108;-90
2023/04/15 03:50:24;;;;;;;11.25;6.70;;;;;;;7.99;69.79;100734.47;4994761;28;20447;-91
2023/04/15 03:52:52;;;;;;;9.68;6.45;;;;;;;8.00;70.21;100741.47;4993709;28;20026;-91
2023/04/15 03:55:18;;;;;;;10.25;6.78;;;;;;;7.98;69.44;100745.84;4994488;28;20045;-91
2023/04/15 03:57:46;;;;;;;11.23;7.10;;;;;;;7.96;70.07;100755.44;4993989;28;20447;-91
2023/04/15 04:00:12;;;;;;;11.57;7.10;;;;;;;7.92;69.85;100762.41;4992746;28;20035;-90
2023/04/15 04:02:37;;;;;;;11.95;6.72;;;;;;;8.00;70.88;100767.78;4992576;28;20037;-90
2023/04/15 04:05:03;;;;;;;9.40;6.70;;;;;;;7.84;70.64;100758.72;4992617;28;20027;-90
2023/04/15 04:07:29;;;;;;;10.52;6.95;;;;;;;7.77;70.33;100751.56;4993483;28;20030;-90
2023/04/15 04:09:57;;;;;;;13.07;6.85;;;;;;;7.86;70.88;100771.91;4993977;28;20462;-89
2023/04/15 04:12:25;;;;;;;11.75;6.45;;;;;;;7.84;71.42;100774.50;4993818;28;20034;-90
2023/04/15 04:14:50;;;;;;;11.65;6.90;;;;;;;7.81;70.53;100776.19;4993694;28;20475;-90
2023/04/15 04:17:18;;;;;;;10.02;6.68;;;;;;;7.85;71.52;100788.56;4994283;28;20044;-90
2023/04/15 04:19:44;;;;;;;12.68;6.65;;;;;;;7.75;70.96;100775.22;4993978;28;20077;-90
2023/04/15 04:22:14;;;;;;;12.40;7.05;;;;;;;7.70;71.66;100778.56;4993818;28;20422;-90
2023/04/15 04:24:40;;;;;;;13.20;7.55;;;;;;;7.65;71.38;100790.75;4993845;28;20034;-92
2023/04/15 04:27:15;;;;;;;11.50;6.53;;;;;;;7.71;72.79;100793.53;4993378;28;20040;-91
2023/04/15 04:29:41;;;;;;;10.25;6.78;;;;;;;7.68;73.03;100796.97;4979100;28;20093;-92
2023/04/15 04:32:06;;;;;;;11.35;7.20;;;;;;;7.56;72.35;100791.44;4997324;28;20077;-90
2023/04/15 04:34:35;;;;;;;10.32;6.70;;;;;;;7.58;73.76;100808.16;4997774;28;20033;-90
2023/04/15 04:37:00;;;;;;;11.45;7.15;;;;;;;7.54;72.75;100808.94;4998163;28;20042;-90
2023/04/15 04:39:26;;;;;;;9.73;6.95;;;;;;;7.40;72.66;100798.09;4996616;28;20023;-91
2023/04/15 04:41:51;;;;;;;10.23;6.35;;;;;;;7.47;73.83;100817.53;4997786;28;20530;-91
2023/04/15 04:44:21;;;;;;;10.75;6.55;;;;;;;7.47;73.61;100825.41;4997530;28;20048;-91
2023/04/15 04:46:46;;;;;;;9.20;6.60;;;;;;;7.35;73.99;100815.50;4995998;28;20440;-91
2023/04/15 04:49:12;;;;;;;10.77;7.13;;;;;;;7.40;74.46;100826.13;4995983;28;20069;-89
2023/04/15 04:51:40;;;;;;;13.05;7.43;;;;;;;7.46;74.51;100834.16;4996639;28;20034;-89
2023/04/15 04:54:06;;;;;;;10.98;7.30;;;;;;;7.40;74.32;100834.00;4996676;28;20081;-90
2023/04/15 04:56:34;;;;;;;11.02;7.05;;;;;;;7.30;74.53;100826.75;4996743;28;20406;-90
2023/04/15 04:59:00;;;;;;;13.82;7.05;;;;;;;7.30;75.38;100826.75;4996814;28;20462;-89
2023/04/15 05:01:28;;;;;;;9.48;6.95;;;;;;;7.30;75.38;100832.91;4996903;28;20026;-89
2023/04/15 05:03:56;;;;;;;12.07;7.65;;;;;;;7.23;75.31;100826.59;4996793;28;20077;-89
2023/04/15 05:06:21;;;;;;;13.30;7.40;;;;;;;7.21;76.16;100830.94;4997235;28;20462;-89
2023/04/15 05:08:47;;;;;;;10.45;7.47;;;;;;;7.25;74.92;100838.06;4996812;28;20034;-90
2023/04/15 05:11:15;;;;;;;14.07;7.18;;;;;;;7.26;75.57;100844.19;4997477;28;20062;-89
2023/04/15 05:13:45;;;;;;;11.55;6.82;;;;;;;7.35;75.78;100849.66;4990156;28;20051;-89
2023/04/15 05:16:14;;;;;;;11.80;7.20;;;;;;;7.35;75.60;100856.66;5011707;28;20070;-89
2023/04/15 05:18:42;;;;;;;9.50;7.32;;;;;;;7.43;75.93;100863.00;5019807;28;20040;-89
2023/04/15 05:21:07;;;;;;;9.98;7.13;;;;;;;7.46;76.18;100856.09;5019929;28;20034;-89
2023/04/15 05:23:37;;;;;;;12.27;7.57;;;;;;;7.59;75.77;100880.91;5012559;28;20038;-90
2023/04/15 05:26:03;;;;;;;10.13;7.32;;;;;;;7.57;75.44;100868.56;5006895;28;20031;-90
2023/04/15 05:28:31;;;;;;;12.00;7.55;;;;;;;7.62;74.64;100867.81;4997137;28;20501;-90
2023/04/15 05:30:57;;;;;;;12.60;6.68;;;;;;;7.73;75.62;100868.06;4996967;28;20362;-90
2023/04/15 05:33:25;;;;;;;16.00;7.60;;;;;;;7.88;75.55;100896.44;4996833;28;20435;-92
2023/04/15 05:35:51;;;;;;;11.48;7.30;;;;;;;7.75;74.87;100892.66;5002070;28;20030;-90
2023/04/15 05:38:16;;;;;;;10.77;7.55;;;;;;;7.82;75.37;100904.22;5000993;28;20034;-91
2023/04/15 05:40:42;;;;;;;9.57;7.57;;;;;;;7.75;74.86;100908.44;5000819;28;20034;-90
2023/04/15 05:43:07;;;;;;;10.32;7.63;;;;;;;7.69;75.44;100903.06;5000421;28;20046;-90
2023/04/15 05:45:33;;;;;;;10.68;7.50;;;;;;;7.65;75.21;100907.34;4996839;28;20177;-91
2023/04/15 05:47:58;;;;;;;10.77;7.75;;;;;;;7.77;75.68;100918.16;4996286;28;20034;-90
2023/04/15 05:50:24;;;;;;;12.75;7.50;;;;;;;7.69;75.91;100908.31;4996338;28;20110;-90
2023/04/15 05:52:51;;;;;;;10.30;7.60;;;;;;;7.71;75.30;100923.28;5011515;28;20129;-90
2023/04/15 05:55:20;;;;;;;10.95;7.55;;;;;;;7.62;75.53;100907.25;4995900;28;20034;-91
2023/04/15 05:57:47;;;;;;;10.43;7.43;;;;;;;7.71;76.02;100930.28;4995829;28;20034;-91
2023/04/15 06:00:15;;;;;;;11.82;7.50;;;;;;;7.70;75.92;100913.59;4996034;28;20030;-91
2023/04/15 06:02:41;;;;;;;11.63;7.97;;;;;;;7.74;75.73;100918.06;4995684;28;20069;-91
2023/04/15 06:05:12;;;;;;;10.73;7.65;;;;;;;7.78;76.27;100919.03;4995864;28;20105;-91
2023/04/15 06:07:38;;;;;;;10.38;7.47;;;;;;;7.80;75.71;100922.63;4995106;28;20041;-90
2023/04/15 06:10:06;;;;;;;10.23;7.32;;;;;;;7.90;75.10;100943.00;4995680;28;20039;-90
2023/04/15 06:12:32;;;;;;;11.18;7.07;;;;;;;8.08;75.75;100946.91;4995435;28;20026;-90
2023/04/15 06:14:59;;;;;;;10.63;7.88;;;;;;;8.12;75.75;100935.59;4995513;28;20027;-90
2023/04/15 06:17:25;;;;;;;11.77;8.02;;;;;;;8.20;74.84;100934.03;4995635;28;20037;-91
2023/04/15 06:19:54;;;;;;;16.85;7.75;;;;;;;8.34;74.84;100944.84;4995061;28;20109;-90
2023/04/15 06:22:21;;;;;;;10.05;7.20;;;;;;;8.59;74.10;100962.97;4995327;28;20485;-90
2023/04/15 06:24:49;;;;;;;10.02;7.20;;;;;;;8.64;74.15;100953.41;4993780;28;20434;-92
2023/04/15 06:27:17;;;;;;;12.05;7.47;;;;;;;8.91;74.45;100970.66;4995742;28;20030;-92
2023/04/15 06:29:47;;;;;;;10.85;7.85;;;;;;;9.09;74.47;100965.72;4995687;28;20051;-91
2023/04/15 06:32:13;;;;;;;11.90;8.18;;;;;;;9.28;73.14;100978.34;4994324;28;20042;-86
2023/04/15 06:34:41;;;;;;;15.57;8.00;;;;;;;9.41;71.98;100971.56;4995206;28;20508;-91
2023/04/15 06:37:23;;;;;;;13.13;8.38;;;;;;;9.58;71.77;100965.69;4993731;28;20060;-90
2023/04/15 06:39:53;;;;;;;15.37;8.60;;;;;;;9.79;71.67;100982.75;5010948;28;20033;-90
2023/04/15 06:42:19;;;;;;;13.02;8.07;;;;;;;9.96;70.62;100987.41;4994890;28;20748;-89
2023/04/15 06:45:02;;;;;;;11.82;7.90;;;;;;;10.13;70.09;101000.88;4995107;28;20030;-89
2023/04/15 06:47:28;;;;;;;9.90;7.40;;;;;;;10.28;70.20;101006.44;4993585;28;20033;-89
2023/04/15 06:50:01;;;;;;;11.25;7.80;;;;;;;10.33;69.39;100991.53;4993953;28;20030;-88
2023/04/15 06:52:36;;;;;;;11.15;8.35;;;;;;;10.47;69.04;100994.34;4993929;28;20429;-90
2023/04/15 06:55:08;;;;;;;17.40;10.35;;;;;;;10.64;68.36;101021.88;4993282;28;20125;-88
2023/04/15 06:57:36;;;;;;;14.35;9.10;;;;;;;10.72;68.58;101011.41;4978135;28;20035;-88
2023/04/15 07:00:04;;;;;;;15.00;11.30;;;;;;;10.88;68.64;101010.75;5009713;28;20057;-89
2023/04/15 07:02:37;;;;;;;12.30;9.57;;;;;;;11.16;67.63;101021.63;4993629;28;20070;-89
2023/04/15 07:05:07;;;;;;;12.18;9.10;;;;;;;11.41;67.59;101036.91;4994545;28;20062;-90
2023/04/15 07:07:34;;;;;;;12.38;9.98;;;;;;;11.51;65.92;101033.47;4993758;28;20174;-90
2023/04/15 07:10:02;;;;;;;12.95;9.07;;;;;;;11.42;66.82;101025.44;4994422;28;20030;-89
2023/04/15 07:12:29;;;;;;;11.80;7.78;;;;;;;11.66;65.89;101043.31;4993629;28;20548;-90
2023/04/15 07:14:55;;;;;;;10.45;7.90;;;;;;;11.65;65.93;101032.69;4994210;28;20077;-90
2023/04/15 07:17:25;;;;;;;12.32;8.05;;;;;;;11.84;65.56;101041.75;4993191;28;20038;-90
2023/04/15 07:19:51;;;;;;;11.68;8.63;;;;;;;12.02;65.55;101040.13;4994281;28;20042;-89
2023/04/15 07:22:16;;;;;;;11.18;8.18;;;;;;;12.29;64.24;101033.28;4994563;28;20053;-89
2023/04/15 07:24:45;;;;;;;19.77;8.30;;;;;;;12.48;64.21;101042.22;4994032;28;20133;-89
2023/04/15 07:27:13;;;;;;;12.60;8.57;;;;;;;12.83;63.33;101060.09;4993164;28;20030;-89
2023/04/15 07:29:59;;;;;;;10.02;7.70;;;;;;;13.00;62.49;101063.69;4994724;28;20133;-89
2023/04/15 07:32:27;;;;;;;12.88;8.05;;;;;;;13.10;62.08;101054.88;4993391;28;20038;-89
2023/04/15 07:34:54;;;;;;;11.02;8.13;;;;;;;13.28;60.46;101076.25;4993776;28;20037;-89
2023/04/15 07:37:27;;;;;;;10.82;7.80;;;;;;;13.51;59.71;101078.06;4993047;28;20053;-89
2023/04/15 07:39:53;;;;;;;10.90;7.10;;;;;;;13.70;59.47;101081.63;4994510;28;20022;-89
2023/04/15 07:42:23;;;;;;;10.90;8.13;;;;;;;13.68;58.19;101072.78;4994363;28;20366;-89
2023/04/15 07:44:58;;;;;;;11.23;7.68;;;;;;;13.64;58.61;101073.66;4994035;28;20026;-89
2023/04/15 07:47:32;;;;;;;9.98;7.20;;;;;;;13.70;57.92;101079.88;4994760;28;20049;-89
2023/04/15 07:49:57;;;;;;;10.52;8.05;;;;;;;13.76;58.55;101085.19;5009954;28;20030;-88
2023/04/15 07:52:26;;;;;;;9.27;7.10;;;;;;;13.86;57.78;101087.84;4993772;28;20068;-89
2023/04/15 07:54:56;;;;;;;10.63;7.63;;;;;;;13.84;58.03;101094.97;4993927;28;20062;-88
2023/04/15 07:57:24;;;;;;;12.18;8.15;;;;;;;13.86;58.40;101085.19;4994556;28;20537;-89
2023/04/15 07:59:54;;;;;;;9.98;7.30;;;;;;;14.11;58.19;101108.25;5009087;28;20031;-89
2023/04/15 08:02:20;;;;;;;10.10;6.90;;;;;;;13.96;57.33;101092.28;4994044;28;20039;-89
2023/04/15 08:04:48;;;;;;;10.05;6.95;;;;;;;13.88;56.61;101092.31;4996070;28;20068;-88
2023/04/15 08:07:13;;;;;;;8.50;6.43;;;;;;;13.89;56.75;101117.09;4997304;28;20037;-89
2023/04/15 08:09:47;;;;;;;8.93;6.80;;;;;;;13.90;56.59;101110.88;4997542;28;20030;-88
2023/04/15 08:12:23;;;;;;;8.27;5.85;;;;;;;13.93;56.44;101105.59;4997817;28;20034;-88
2023/04/15 08:14:50;;;;;;;7.55;6.18;;;;;;;14.01;56.71;101110.03;4998077;28;20034;-88
2023/04/15 08:17:20;;;;;;;9.95;6.53;;;;;;;14.20;56.10;101124.19;4997844;28;20027;-89
2023/04/15 08:19:48;;;;;;;11.30;8.77;;;;;;;14.36;55.70;101117.13;4997646;28;20035;-89
2023/04/15 08:22:16;;;;;;;9.55;6.32;;;;;;;14.50;55.38;101128.66;4998059;28;20029;-89
2023/04/15 08:24:42;;;;;;;8.80;6.53;;;;;;;14.60;55.27;101118.88;4996257;28;20474;-89
2023/04/15 08:27:10;;;;;;;9.77;6.15;;;;;;;14.87;53.58;101130.38;4997495;28;20039;-89
2023/04/15 08:29:38;;;;;;;8.13;5.25;;;;;;;15.21;52.31;101133.84;4997277;28;20478;-89
2023/04/15 08:32:15;;;;;;;7.75;4.90;;;;;;;15.52;50.26;101138.13;4997198;28;20027;-89
2023/04/15 08:34:43;;;;;;;8.38;5.00;;;;;;;15.75;50.47;101138.03;4997680;28;20077;-89
2023/04/15 08:37:14;;;;;;;7.20;4.93;;;;;;;15.97;49.87;101140.56;4997435;28;20030;-89
2023/04/15 08:39:44;;;;;;;8.32;4.72;;;;;;;16.18;47.77;101140.41;4997686;28;20066;-89
2023/04/15 08:42:18;;;;;;;6.97;4.47;;;;;;;16.36;47.87;101151.81;4996183;28;20395;-90
2023/04/15 08:44:47;;;;;;;5.55;4.05;;;;;;;16.56;46.94;101168.53;4997309;28;20041;-91
2023/04/15 08:47:14;;;;;;;6.38;4.60;;;;;;;16.51;46.80;101155.25;4997320;28;20031;-90
2023/04/15 08:49:41;;;;;;;5.53;4.70;;;;;;;16.84;46.70;101168.34;4995933;28;20033;-90
2023/04/15 08:52:08;;;;;;;6.72;4.75;;;;;;;16.88;45.69;101167.41;4997242;28;20062;-90
2023/04/15 08:54:36;;;;;;;7.80;5.00;;;;;;;16.70;45.67;101169.31;5012055;28;20022;-90
2023/04/15 08:57:02;;;;;;;6.07;4.57;;;;;;;16.76;45.58;101184.41;4997176;28;20038;-89
2023/04/15 08:59:51;;;;;;;6.72;4.72;;;;;;;16.78;44.60;101188.81;4997126;28;20034;-89
2023/04/15 09:02:30;;;;;;;9.18;4.75;;;;;;;16.84;45.04;101185.22;4996321;28;20038;-90
2023/04/15 09:05:03;;;;;;;7.40;4.70;;;;;;;16.88;44.82;101194.09;4997187;28;20497;-90
2023/04/15 09:07:31;;;;;;;7.80;4.72;;;;;;;16.63;44.58;101196.94;4996988;28;20030;-90
2023/04/15 09:10:05;;;;;;;7.47;4.75;;;;;;;16.52;44.66;101199.69;5012721;28;20030;-90
2023/04/15 09:12:42;;;;;;;5.38;4.10;;;;;;;16.68;45.47;101212.91;5012394;28;20065;-90
2023/04/15 09:15:15;;;;;;;6.88;4.43;;;;;;;16.47;45.12;101224.66;4994793;28;20030;-89
2023/04/15 09:17:55;;;;;;;6.97;4.63;;;;;;;16.47;45.82;101203.31;4996562;28;20105;-90
2023/04/15 09:20:23;;;;;;;6.97;4.40;;;;;;;16.84;46.37;101213.72;4980592;28;20038;-90
2023/04/15 09:22:50;;;;;;;5.40;4.05;;;;;;;17.08;45.65;101220.59;4996685;28;20109;-90
2023/04/15 09:25:28;;;;;;;7.00;4.30;;;;;;;17.17;44.19;101231.16;4996546;28;20034;-89
2023/04/15 09:27:59;;;;;;;6.03;4.18;;;;;;;17.15;44.71;101239.22;4995477;28;20469;-89
2023/04/15 09:30:33;;;;;;;6.68;4.20;;;;;;;17.26;45.20;101236.44;4996409;28;20030;-89
2023/04/15 09:33:07;;;;;;;5.00;4.20;;;;;;;17.09;43.93;101235.72;4995482;28;20542;-89
2023/04/15 09:35:35;;;;;;;6.05;4.20;;;;;;;16.93;43.61;101248.31;4995373;28;20430;-90
2023/04/15 09:38:03;;;;;;;6.07;3.90;;;;;;;17.15;44.32;101247.22;4996178;28;20033;-90
2023/04/15 09:40:37;;;;;;;6.80;4.30;;;;;;;17.33;43.61;101258.63;4996187;28;20479;-89
2023/04/15 09:43:16;;;;;;;8.48;4.70;;;;;;;17.36;42.94;101243.44;4996796;28;20034;-90
2023/04/15 09:46:10;;;;;;;7.20;4.63;;;;;;;17.86;42.22;101246.44;4995110;28;20116;-90
2023/04/15 09:48:47;;;;;;;6.57;4.20;;;;;;;18.09;42.73;101255.06;4996420;28;20026;-90
2023/04/15 09:51:13;;;;;;;9.55;4.70;;;;;;;18.39;43.30;101250.19;4996433;28;20080;-90
2023/04/15 09:53:38;;;;;;;5.88;4.50;;;;;;;18.67;41.58;101258.63;4995637;28;20034;-90
2023/04/15 09:56:06;;;;;;;6.25;4.00;;;;;;;18.65;41.43;101257.78;4995972;28;20117;-90
2023/04/15 09:58:33;;;;;;;8.68;3.60;;;;;;;18.68;40.93;101260.44;5011706;28;20378;-90
2023/04/15 10:01:05;;;;;;;8.57;4.90;;;;;;;18.72;39.89;101265.75;4995943;28;20093;-92
2023/04/15 10:03:42;;;;;;;8.07;4.80;;;;;;;18.85;40.51;101260.19;4995427;28;20027;-91
2023/04/15 10:06:16;;;;;;;6.63;3.90;;;;;;;18.77;41.05;101263.00;4995316;28;20053;-91
2023/04/15 10:08:53;;;;;;;7.22;4.00;;;;;;;18.73;40.41;101251.44;4995690;28;20061;-90
2023/04/15 10:11:23;;;;;;;6.70;3.60;;;;;;;18.69;39.68;101264.88;4995474;28;20398;-90
2023/04/15 10:13:50;;;;;;;5.65;3.50;;;;;;;18.49;39.63;101263.38;4994627;28;20034;-90
2023/04/15 10:16:26;;;;;;;5.20;3.90;;;;;;;18.61;41.18;101269.47;4996019;28;20037;-90
2023/04/15 10:19:01;;;;;;;5.53;3.65;;;;;;;18.84;40.38;101270.00;4994310;28;20038;-90
2023/04/15 10:21:27;;;;;;;5.40;3.70;;;;;;;18.89;39.05;101280.66;4994523;28;20125;-91
2023/04/15 10:23:55;;;;;;;5.03;3.70;;;;;;;18.77;40.32;101281.72;4995506;28;20085;-90
2023/04/15 10:26:26;;;;;;;5.13;3.55;;;;;;;18.74;40.32;101271.94;4994042;28;20049;-90
2023/04/15 10:28:57;;;;;;;4.63;3.47;;;;;;;19.09;40.11;101275.81;4978279;28;20069;-90
2023/04/15 10:31:30;;;;;;;4.88;3.47;;;;;;;19.30;39.43;101274.56;4994236;28;20041;-91
2023/04/15 10:34:05;;;;;;;5.88;4.28;;;;;;;19.26;39.62;101278.19;4994595;28;20434;-90
2023/04/15 10:36:38;;;;;;;5.45;3.75;;;;;;;19.44;38.88;101288.59;4994828;28;20473;-90
2023/04/15 10:39:50;;;;;;;5.95;3.70;;;;;;;19.83;40.22;101296.81;5005869;28;20041;-91
2023/04/15 10:42:22;;;;;;;4.60;3.22;;;;;;;19.88;37.85;101294.03;4996510;28;20080;-91
2023/04/15 10:45:05;;;;;;;;;;;;;;;;;;;;;
2023/04/15 10:47:39;;;;;;;6.43;3.13;;;;;;;19.87;38.15;101300.28;5007773;28;20168;-90
2023/04/15 10:50:05;;;;;;;3.95;2.90;;;;;;;19.76;38.34;101303.19;5003646;28;20422;-91
2023/04/15 10:52:38;;;;;;;3.67;2.72;;;;;;;19.66;38.66;101272.13;4998437;28;20109;-91
2023/04/15 10:55:19;;;;;;;;;;;;;;;;;;;;;
2023/04/15 10:58:00;;;;;;;4.97;3.07;;;;;;;19.97;38.11;101292.03;4995707;28;20044;-90
2023/04/15 11:00:34;;;;;;;3.92;2.70;;;;;;;19.88;36.61;101291.34;4994970;28;20320;-91
2023/04/15 11:03:18;;;;;;;3.72;2.60;;;;;;;20.13;37.09;101299.78;4995595;28;20494;-92
2023/04/15 11:06:00;;;;;;;5.78;2.97;;;;;;;20.10;37.11;101313.25;4998908;28;20042;-91
2023/04/15 11:08:58;;;;;;;4.72;3.17;;;;;;;20.16;38.93;101307.72;5000803;28;20030;-91
2023/04/15 11:12:01;;;;;;;4.63;3.08;;;;;;;20.10;37.53;101313.25;4983922;28;20466;-91
2023/04/15 11:14:26;;;;;;;;;;;;;;;20.22;37.03;101311.19;5010757;28;20030;-91
2023/04/15 11:16:51;;;;;;;6.23;3.07;;;;;;;20.07;37.00;101306.13;5009716;28;19914;-91
2023/04/15 11:19:17;;;;;;;5.32;3.50;;;;;;;19.83;36.94;101302.16;4993505;28;20277;-91
2023/04/15 11:21:42;;;;;;;5.95;3.17;;;;;;;19.90;37.09;101306.47;4993438;28;20041;-91
2023/04/15 11:24:07;;;;;;;5.05;3.30;;;;;;;20.39;38.06;101304.56;4993855;28;20134;-91
2023/04/15 11:26:33;;;;;;;5.97;3.58;;;;;;;20.81;38.72;101312.53;4994814;28;20566;-91
2023/04/15 11:29:00;;;;;;;6.18;3.40;;;;;;;20.88;37.25;101296.25;4976891;28;20054;-92
2023/04/15 11:31:27;;;;;;;4.95;3.45;;;;;;;20.49;37.60;101312.38;4994398;28;20042;-92
2023/04/15 11:33:58;;;;;;;6.32;3.72;;;;;;;20.23;37.26;101317.44;4994999;28;20480;-91
2023/04/15 11:36:27;;;;;;;4.32;3.30;;;;;;;20.10;37.80;101316.81;4993158;28;20474;-91